Time;durP1;ratioP1;P1;durP2;ratioP2;P2;SDS_P1;SDS_P2;PMS_P1;PMS_P2;Temp;Humidity;BMP_temperature;BMP_pressure;BME280_temperature;BME280_humidity;BME280_pressure;Samples;Min_cycle;Max_cycle;Signal;HPM_P1;HPM_P2
2021/10/04 00:01:06;;;;;;;100.22;31.45;;;;;;;5.18;75.12;101602.94;5121451;27;20039;-75
2021/10/04 00:03:32;;;;;;;103.15;30.98;;;;;;;5.20;74.42;101597.66;5125922;27;20073;-78
2021/10/04 00:05:58;;;;;;;132.80;43.05;;;;;;;5.26;74.71;101599.25;5142254;27;20042;-74
2021/10/04 00:08:24;;;;;;;95.78;31.27;;;;;;;5.29;74.59;101592.19;5112919;28;20056;-75
2021/10/04 00:10:51;;;;;;;112.03;33.38;;;;;;;5.30;74.32;101595.69;5112181;28;20040;-74
2021/10/04 00:13:17;;;;;;;97.07;32.40;;;;;;;5.23;74.41;101600.19;5116287;27;20073;-73
2021/10/04 00:15:43;;;;;;;108.93;33.97;;;;;;;5.27;74.62;101600.97;5112447;27;20035;-77
2021/10/04 00:18:08;;;;;;;99.10;33.47;;;;;;;5.33;74.69;101606.97;5116294;27;20038;-77
2021/10/04 00:20:34;;;;;;;98.75;33.67;;;;;;;5.35;74.86;101602.53;5128271;27;20045;-76
2021/10/04 00:23:01;;;;;;;441.67;140.40;;;;;;;5.33;74.36;101609.59;5127340;27;20031;-74
2021/10/04 00:25:27;;;;;;;102.57;35.17;;;;;;;5.35;74.15;101609.53;5127165;27;20566;-74
2021/10/04 00:27:53;;;;;;;90.95;29.88;;;;;;;5.38;73.42;101605.97;5124620;27;20122;-78
2021/10/04 00:30:21;;;;;;;86.47;29.98;;;;;;;5.43;73.30;101606.72;5113564;27;20040;-79
2021/10/04 00:32:51;;;;;;;89.80;29.90;;;;;;;5.35;73.65;101602.53;5112147;27;20051;-75
2021/10/04 00:35:19;;;;;;;88.38;29.08;;;;;;;5.32;73.78;101602.63;5132347;27;20129;-77
2021/10/04 00:37:45;;;;;;;84.47;31.75;;;;;;;5.28;73.55;101608.84;5129837;27;20035;-75
2021/10/04 00:40:16;;;;;;;107.47;37.45;;;;;;;5.28;73.56;101613.22;5112184;28;20118;-75
2021/10/04 00:42:42;;;;;;;120.05;43.28;;;;;;;5.30;73.48;101607.03;5112035;27;20174;-74
2021/10/04 00:45:10;;;;;;;108.35;40.30;;;;;;;5.38;73.66;101611.22;5120492;27;20128;-73
2021/10/04 00:47:38;;;;;;;122.22;38.03;;;;;;;5.47;72.82;101603.13;5131952;27;20434;-75
2021/10/04 00:50:05;;;;;;;106.95;37.72;;;;;;;5.58;72.42;101603.75;5113697;27;20043;-74
2021/10/04 00:52:31;;;;;;;91.85;34.92;;;;;;;5.62;72.18;101610.63;5114847;27;20475;-73
2021/10/04 00:54:57;;;;;;;108.05;36.78;;;;;;;5.64;71.74;101611.44;5124672;27;20037;-75
2021/10/04 00:57:23;;;;;;;110.93;39.67;;;;;;;5.70;71.49;101610.44;5119083;27;20039;-72
2021/10/04 00:59:49;;;;;;;109.70;40.65;;;;;;;5.77;71.80;101611.13;5122888;27;20035;-73
2021/10/04 01:02:15;;;;;;;122.32;43.00;;;;;;;5.72;71.83;101607.75;5124386;27;20091;-75
2021/10/04 01:04:42;;;;;;;105.78;34.63;;;;;;;5.71;71.42;101606.03;5114238;28;20031;-75
2021/10/04 01:07:07;;;;;;;103.78;36.25;;;;;;;5.72;72.14;101613.00;5117012;27;20285;-73
2021/10/04 01:09:33;;;;;;;110.75;36.90;;;;;;;5.69;71.89;101613.09;5123853;27;20071;-74
2021/10/04 01:11:59;;;;;;;93.35;30.13;;;;;;;5.71;71.70;101614.78;5117537;27;20058;-75
2021/10/04 01:14:25;;;;;;;98.32;33.42;;;;;;;5.66;72.41;101629.78;5127027;27;20480;-73
2021/10/04 01:16:51;;;;;;;117.47;40.03;;;;;;;5.65;72.39;101626.28;5127522;27;20047;-72
2021/10/04 01:19:17;;;;;;;116.45;39.78;;;;;;;5.62;72.23;101623.75;5132412;27;20043;-75
2021/10/04 01:21:44;;;;;;;113.32;42.05;;;;;;;5.62;71.82;101623.75;5123425;27;20039;-75
2021/10/04 01:24:10;;;;;;;106.00;39.50;;;;;;;5.57;72.17;101609.00;5118189;27;20035;-75
2021/10/04 01:26:36;;;;;;;113.63;41.88;;;;;;;5.54;71.64;101617.81;5120037;27;20042;-77
2021/10/04 01:29:03;;;;;;;86.72;31.10;;;;;;;5.44;71.60;101614.56;5117843;27;20039;-74
2021/10/04 01:31:30;;;;;;;123.47;44.67;;;;;;;5.43;71.41;101612.84;5132972;27;20028;-74
2021/10/04 01:33:56;;;;;;;119.60;44.78;;;;;;;5.39;71.50;101605.09;5118136;27;20051;-75
2021/10/04 01:36:26;;;;;;;126.80;51.63;;;;;;;5.25;72.30;101614.13;5118004;27;20563;-75
2021/10/04 01:38:53;;;;;;;126.72;50.85;;;;;;;5.17;72.26;101616.06;5120778;27;20479;-73
2021/10/04 01:41:20;;;;;;;132.18;51.00;;;;;;;5.11;72.66;101606.59;5129931;27;20483;-74
2021/10/04 01:43:45;;;;;;;138.55;55.65;;;;;;;5.07;72.71;101614.56;5129632;27;20031;-73
2021/10/04 01:46:11;;;;;;;159.13;57.85;;;;;;;5.00;72.93;101619.94;5120394;27;20047;-75
2021/10/04 01:48:37;;;;;;;158.95;59.30;;;;;;;4.92;73.56;101619.28;5134235;27;20067;-74
2021/10/04 01:51:03;;;;;;;150.48;50.20;;;;;;;4.83;73.80;101614.22;5116984;27;20385;-73
2021/10/04 01:53:29;;;;;;;140.98;51.22;;;;;;;4.69;74.04;101627.63;5118427;27;20039;-74
2021/10/04 01:55:55;;;;;;;138.07;52.47;;;;;;;4.61;74.82;101622.53;5134546;27;20043;-74
2021/10/04 01:58:21;;;;;;;136.07;48.33;;;;;;;4.57;74.75;101623.47;5130513;27;20131;-75
2021/10/04 02:00:48;;;;;;;130.43;45.50;;;;;;;4.52;74.75;101627.97;5117553;27;20134;-74
2021/10/04 02:03:14;;;;;;;114.75;42.60;;;;;;;4.50;75.09;101630.63;5118080;27;20036;-73
2021/10/04 02:05:40;;;;;;;130.07;43.38;;;;;;;4.48;75.15;101631.53;5117240;27;20167;-74
2021/10/04 02:08:06;;;;;;;121.03;44.33;;;;;;;4.44;75.31;101635.97;5125015;27;20118;-76
2021/10/04 02:10:36;;;;;;;106.07;38.22;;;;;;;4.43;75.17;101638.63;5125847;27;20589;-73
2021/10/04 02:13:03;;;;;;;106.88;36.15;;;;;;;4.43;75.76;101633.41;5120543;27;20051;-72
2021/10/04 02:15:30;;;;;;;108.55;37.08;;;;;;;4.44;76.08;101641.22;5132035;27;20039;-72
2021/10/04 02:17:58;;;;;;;102.32;33.65;;;;;;;4.47;75.24;101646.38;5117718;27;20055;-73
2021/10/04 02:20:27;;;;;;;95.97;32.85;;;;;;;4.47;75.00;101641.13;5125578;27;20432;-72
2021/10/04 02:22:53;;;;;;;97.70;33.63;;;;;;;4.47;75.04;101650.78;5126185;27;20411;-74
2021/10/04 02:25:20;;;;;;;93.75;30.73;;;;;;;4.51;75.50;101647.19;5133699;27;20122;-73
2021/10/04 02:27:47;;;;;;;100.07;31.38;;;;;;;4.57;75.28;101639.19;5133003;27;20039;-73
2021/10/04 02:30:18;;;;;;;90.93;31.85;;;;;;;4.57;75.13;101641.81;5120270;27;20074;-73
2021/10/04 02:32:44;;;;;;;104.35;32.10;;;;;;;4.50;75.06;101640.25;5135081;27;20054;-73
2021/10/04 02:35:10;;;;;;;92.53;30.85;;;;;;;4.38;75.44;101641.34;5117211;27;20047;-74
2021/10/04 02:37:36;;;;;;;91.88;29.38;;;;;;;4.30;75.14;101646.72;5113925;27;20035;-73
2021/10/04 02:40:04;;;;;;;97.00;29.70;;;;;;;4.23;75.29;101652.97;5114007;28;20040;-75
2021/10/04 02:42:29;;;;;;;95.63;31.00;;;;;;;4.06;75.78;101645.41;5114447;28;20051;-75
2021/10/04 02:44:55;;;;;;;95.45;29.80;;;;;;;3.95;76.39;101643.00;5127884;27;20484;-77
2021/10/04 02:47:21;;;;;;;89.43;29.38;;;;;;;3.84;76.80;101655.41;5113876;27;20488;-73
2021/10/04 02:49:47;;;;;;;88.25;30.55;;;;;;;3.76;76.94;101647.66;5120620;27;20537;-74
2021/10/04 02:52:16;;;;;;;93.30;30.38;;;;;;;3.71;77.51;101642.53;5117906;27;20050;-76
2021/10/04 02:54:42;;;;;;;90.28;30.85;;;;;;;3.73;77.72;101645.97;5129143;27;20458;-76
2021/10/04 02:57:07;;;;;;;87.93;29.15;;;;;;;3.71;77.16;101642.53;5135457;27;20042;-74
2021/10/04 02:59:33;;;;;;;78.95;27.55;;;;;;;3.67;77.67;101643.47;5134528;27;20040;-74
2021/10/04 03:01:59;;;;;;;86.72;29.55;;;;;;;3.66;77.80;101636.50;5115312;27;20081;-74
2021/10/04 03:04:25;;;;;;;94.32;30.50;;;;;;;3.63;77.93;101639.16;5114394;27;20043;-75
2021/10/04 03:06:50;;;;;;;84.28;30.50;;;;;;;3.62;77.90;101639.22;5125461;27;20616;-75
2021/10/04 03:09:16;;;;;;;92.55;31.80;;;;;;;3.62;77.91;101645.28;5129914;27;20063;-74
2021/10/04 03:11:42;;;;;;;99.30;32.80;;;;;;;3.59;77.85;101640.13;5120469;27;20096;-77
2021/10/04 03:14:08;;;;;;;101.03;30.38;;;;;;;3.60;78.25;101641.84;5134364;27;20043;-78
2021/10/04 03:16:34;;;;;;;106.10;32.75;;;;;;;3.50;78.03;101635.91;5134073;27;20042;-76
2021/10/04 03:19:00;;;;;;;96.53;31.73;;;;;;;3.47;77.96;101640.31;5132255;27;20070;-76
2021/10/04 03:21:26;;;;;;;102.15;32.00;;;;;;;3.45;78.53;101640.34;5134331;27;20035;-76
2021/10/04 03:23:52;;;;;;;102.32;32.22;;;;;;;3.44;78.54;101640.34;5133654;27;20715;-76
2021/10/04 03:26:18;;;;;;;96.50;29.65;;;;;;;3.32;78.18;101642.25;5134036;27;20050;-74
2021/10/04 03:28:44;;;;;;;93.32;29.55;;;;;;;3.28;78.44;101651.06;5132501;27;20054;-75
2021/10/04 03:31:10;;;;;;;105.22;33.45;;;;;;;3.28;77.94;101651.06;5128795;27;20040;-75
2021/10/04 03:33:36;;;;;;;89.25;31.35;;;;;;;3.24;77.50;101646.75;5122546;27;20054;-73
2021/10/04 03:36:03;;;;;;;93.05;30.52;;;;;;;3.21;77.97;101654.63;5132760;27;20118;-75
2021/10/04 03:38:29;;;;;;;97.78;29.30;;;;;;;3.20;78.61;101653.78;5132958;27;20039;-75
2021/10/04 03:40:56;;;;;;;90.32;29.52;;;;;;;3.19;79.27;101648.56;5134003;27;20043;-77
2021/10/04 03:43:21;;;;;;;102.50;32.60;;;;;;;3.15;79.53;101644.25;5134031;27;20049;-75
2021/10/04 03:45:47;;;;;;;86.75;28.85;;;;;;;3.22;79.12;101648.53;5133448;27;20140;-76
2021/10/04 03:48:13;;;;;;;88.55;29.75;;;;;;;3.30;79.09;101646.66;5132391;27;20073;-76
2021/10/04 03:50:39;;;;;;;88.35;29.83;;;;;;;3.50;78.44;101651.59;5130279;27;20039;-74
2021/10/04 03:53:05;;;;;;;85.80;27.83;;;;;;;3.63;77.27;101657.50;5120124;27;20047;-74
2021/10/04 03:55:31;;;;;;;90.25;28.55;;;;;;;3.72;77.06;101657.31;5115206;27;20119;-75
2021/10/04 03:57:57;;;;;;;88.45;29.90;;;;;;;3.72;76.64;101654.72;5133357;27;20074;-76
2021/10/04 04:00:25;;;;;;;91.38;28.60;;;;;;;3.83;76.43;101669.38;5131265;27;20137;-76
2021/10/04 04:02:51;;;;;;;;;;;;;;;3.92;75.52;101658.75;5124978;27;20046;-76
2021/10/04 04:05:18;;;;;;;94.72;29.63;;;;;;;3.96;74.95;101663.06;5121733;27;19919;-75
2021/10/04 04:07:44;;;;;;;86.13;29.50;;;;;;;4.16;75.16;101672.28;5112652;28;20043;-73
2021/10/04 04:10:11;;;;;;;80.75;25.85;;;;;;;4.54;74.62;101668.09;5112450;28;20503;-74
2021/10/04 04:12:38;;;;;;;79.35;29.17;;;;;;;5.21;72.98;101667.59;5129948;27;20055;-78
2021/10/04 04:15:05;;;;;;;95.30;31.65;;;;;;;5.93;69.82;101653.63;5121833;27;20423;-80
2021/10/04 04:17:32;;;;;;;86.93;29.40;;;;;;;6.62;67.37;101653.56;5116252;27;20051;-76
2021/10/04 04:19:58;;;;;;;86.45;30.40;;;;;;;7.27;64.96;101656.88;5123849;27;20035;-82
2021/10/04 04:22:24;;;;;;;87.65;30.45;;;;;;;7.82;62.75;101656.88;5084544;27;20052;-76
2021/10/04 04:24:50;;;;;;;75.20;28.63;;;;;;;8.31;61.25;101661.38;5123658;27;20712;-76
2021/10/04 04:27:16;;;;;;;79.13;28.73;;;;;;;8.84;59.86;101661.22;5117366;27;20043;-75
2021/10/04 04:29:42;;;;;;;76.03;29.15;;;;;;;9.55;58.34;101653.16;5117824;27;20502;-75
2021/10/04 04:32:09;;;;;;;76.93;28.40;;;;;;;10.24;56.20;101650.31;5124763;27;20078;-80
2021/10/04 04:34:36;;;;;;;114.00;53.05;;;;;;;10.81;54.36;101661.88;5114738;27;20039;-76
2021/10/04 04:37:02;;;;;;;75.85;27.65;;;;;;;11.08;52.85;101658.00;5117764;27;20032;-75
2021/10/04 04:39:28;;;;;;;80.45;29.52;;;;;;;11.46;51.22;101652.66;5131162;27;20051;-76
2021/10/04 04:41:54;;;;;;;75.35;27.85;;;;;;;11.96;49.48;101659.94;5132311;27;20043;-78
2021/10/04 04:44:21;;;;;;;72.75;29.38;;;;;;;12.29;48.78;101664.41;5122262;27;20469;-77
2021/10/04 04:46:48;;;;;;;82.38;30.58;;;;;;;12.63;47.98;101667.06;5121875;27;20035;-75
2021/10/04 04:49:13;;;;;;;78.68;30.63;;;;;;;13.25;46.71;101664.56;5122271;27;20081;-74
2021/10/04 04:51:39;;;;;;;94.45;31.25;;;;;;;13.69;45.51;101665.66;5103456;27;20090;-79
2021/10/04 04:54:05;;;;;;;93.50;34.10;;;;;;;14.04;44.55;101662.72;5118353;27;20043;-78
2021/10/04 04:56:31;;;;;;;87.25;32.75;;;;;;;14.51;43.68;101663.44;5129431;27;20172;-76
2021/10/04 04:58:57;;;;;;;89.43;33.13;;;;;;;15.22;42.48;101681.31;5118240;27;20069;-76
2021/10/04 05:01:23;;;;;;;79.07;32.30;;;;;;;15.64;41.48;101666.97;5116687;27;20044;-78
2021/10/04 05:03:48;;;;;;;83.47;32.35;;;;;;;15.88;40.58;101671.63;5124828;27;20560;-77
2021/10/04 05:06:14;;;;;;;88.05;34.13;;;;;;;16.03;40.27;101676.91;5111599;28;20086;-75
2021/10/04 05:08:40;;;;;;;77.70;32.67;;;;;;;16.63;39.31;101665.56;5111781;28;20039;-77
2021/10/04 05:11:06;;;;;;;72.72;31.90;;;;;;;17.16;38.27;101671.69;5111861;28;20060;-78
2021/10/04 05:13:32;;;;;;;76.28;31.90;;;;;;;17.75;37.46;101665.56;5110046;28;20040;-76
2021/10/04 05:15:57;;;;;;;81.68;34.17;;;;;;;18.49;36.46;101657.22;5109946;28;20050;-76
2021/10/04 05:18:23;;;;;;;51.88;23.63;;;;;;;18.92;34.28;101664.53;5112113;28;20062;-81
2021/10/04 05:20:49;;;;;;;53.15;24.00;;;;;;;18.07;35.30;101667.66;5110233;28;20043;-76
2021/10/04 05:23:15;;;;;;;50.90;22.63;;;;;;;18.03;34.06;101666.16;5111256;28;20116;-75
2021/10/04 05:25:41;;;;;;;74.45;33.50;;;;;;;17.68;34.25;101672.34;5111880;28;20142;-77
2021/10/04 05:28:07;;;;;;;54.13;24.50;;;;;;;18.15;34.54;101672.41;5111656;28;20132;-79
2021/10/04 05:30:33;;;;;;;50.60;23.65;;;;;;;17.86;34.69;101670.13;5112358;28;20048;-79
2021/10/04 05:33:00;;;;;;;59.53;24.98;;;;;;;17.64;34.48;101671.72;5111854;28;20452;-76
2021/10/04 05:35:27;;;;;;;60.10;24.70;;;;;;;18.47;33.85;101671.69;5111793;28;20054;-76
2021/10/04 05:37:52;;;;;;;61.92;24.75;;;;;;;19.15;32.91;101683.28;5112112;28;20043;-78
2021/10/04 05:40:19;;;;;;;62.30;26.90;;;;;;;19.01;32.97;101678.19;5111879;28;20066;-79
2021/10/04 05:42:45;;;;;;;61.72;26.73;;;;;;;19.31;32.26;101684.72;5112604;28;20031;-78
2021/10/04 05:45:12;;;;;;;60.70;25.65;;;;;;;19.85;31.08;101682.94;5111366;28;20054;-79
2021/10/04 05:47:38;;;;;;;;;;;;;;;19.87;31.41;101689.06;5111846;28;20180;-79
2021/10/04 05:50:05;;;;;;;65.22;26.77;;;;;;;20.63;30.66;101690.66;5111741;28;20014;-77
2021/10/04 05:52:31;;;;;;;56.60;26.02;;;;;;;20.52;30.13;101689.75;5093055;28;20034;-78
2021/10/04 05:54:57;;;;;;;54.80;24.58;;;;;;;21.05;29.30;101681.59;5111351;28;20474;-76
2021/10/04 05:57:22;;;;;;;49.85;25.33;;;;;;;20.77;29.78;101695.72;5110649;28;20176;-75
2021/10/04 05:59:48;;;;;;;61.53;25.10;;;;;;;21.61;28.11;101689.09;5110057;28;20047;-77
2021/10/04 06:02:14;;;;;;;56.47;27.05;;;;;;;22.04;28.27;101683.41;5112155;28;20039;-79
2021/10/04 06:04:40;;;;;;;51.88;25.00;;;;;;;22.25;27.80;101685.94;5113967;28;20867;-77
2021/10/04 06:07:06;;;;;;;55.55;25.33;;;;;;;21.49;28.02;101696.41;5114150;28;20454;-78
2021/10/04 06:09:32;;;;;;;53.75;24.73;;;;;;;21.21;28.90;101694.53;5115368;28;20148;-76
2021/10/04 06:11:58;;;;;;;63.67;27.92;;;;;;;20.49;29.39;101687.31;5115755;28;20232;-80
2021/10/04 06:14:24;;;;;;;55.45;27.20;;;;;;;21.49;29.08;101691.03;5097410;28;20047;-77
2021/10/04 06:16:55;;;;;;;61.35;28.95;;;;;;;21.56;28.66;101686.00;5115375;28;20054;-76
2021/10/04 06:19:21;;;;;;;59.67;28.50;;;;;;;21.50;29.01;101692.75;5115430;28;20044;-75
2021/10/04 06:21:48;;;;;;;66.45;27.73;;;;;;;21.94;28.55;101695.06;5115611;28;20046;-78
2021/10/04 06:24:14;;;;;;;59.20;26.58;;;;;;;22.46;27.38;101692.00;5115454;28;20050;-80
2021/10/04 06:26:39;;;;;;;56.95;26.98;;;;;;;22.89;26.95;101688.84;5113957;28;20047;-77
2021/10/04 06:29:24;;;;;;;61.22;26.95;;;;;;;22.47;27.56;101695.56;5115264;28;20088;-79
2021/10/04 06:31:50;;;;;;;57.55;27.15;;;;;;;22.13;27.81;101694.19;5115259;28;20055;-78
2021/10/04 06:34:16;;;;;;;57.30;26.73;;;;;;;22.41;27.45;101696.97;5115450;28;20048;-76
2021/10/04 06:36:41;;;;;;;51.72;25.85;;;;;;;21.94;27.50;101694.19;5115205;28;20039;-78
2021/10/04 06:39:07;;;;;;;48.53;26.35;;;;;;;21.37;28.47;101702.09;5113544;28;20196;-77
2021/10/04 06:41:33;;;;;;;49.38;23.88;;;;;;;21.29;28.67;101702.78;5114135;28;20032;-78
2021/10/04 06:43:59;;;;;;;49.53;25.00;;;;;;;20.97;28.92;101701.13;5113482;28;20048;-79
2021/10/04 06:46:27;;;;;;;50.33;24.15;;;;;;;21.46;28.49;101712.03;5096305;28;20040;-77
2021/10/04 06:48:53;;;;;;;49.85;25.70;;;;;;;21.05;29.01;101708.50;5115348;28;20572;-80
2021/10/04 06:51:22;;;;;;;46.05;25.15;;;;;;;21.15;28.93;101707.56;5114871;28;20124;-81
2021/10/04 06:53:47;;;;;;;49.08;24.33;;;;;;;22.48;27.43;101707.19;5113694;28;20516;-78
2021/10/04 06:56:13;;;;;;;48.00;23.75;;;;;;;23.41;25.78;101704.47;5115166;28;20043;-81
2021/10/04 06:58:39;;;;;;;52.60;24.58;;;;;;;23.34;26.19;101704.25;5115076;28;20523;-79
2021/10/04 07:01:05;;;;;;;45.40;23.40;;;;;;;24.19;24.92;101698.44;5114920;27;20084;-80
2021/10/04 07:03:31;;;;;;;45.55;22.67;;;;;;;24.56;24.29;101699.13;5113643;28;20044;-78
2021/10/04 07:05:59;;;;;;;42.30;22.35;;;;;;;24.08;24.63;101711.38;5096366;28;20048;-82
2021/10/04 07:08:25;;;;;;;;;;;;;;;24.31;24.03;101701.72;5114007;28;20043;-84
2021/10/04 07:10:51;;;;;;;42.27;21.70;;;;;;;24.52;24.11;101703.19;5096430;28;19916;-80
2021/10/04 07:13:17;;;;;;;47.97;24.60;;;;;;;24.94;23.60;101704.28;5112484;28;20050;-79
2021/10/04 07:15:42;;;;;;;46.55;22.25;;;;;;;25.62;23.03;101706.00;5114377;28;20039;-78
2021/10/04 07:18:08;;;;;;;34.72;17.92;;;;;;;24.57;22.55;101711.66;5114824;28;20039;-80
2021/10/04 07:20:34;;;;;;;39.95;20.45;;;;;;;25.01;22.90;101710.72;5096837;28;20043;-81
2021/10/04 07:23:00;;;;;;;35.10;18.70;;;;;;;24.25;23.37;101706.91;5114868;27;20058;-79
2021/10/04 07:25:26;;;;;;;32.53;18.80;;;;;;;24.43;23.82;101709.56;5115506;28;20043;-80
2021/10/04 07:27:52;;;;;;;41.22;21.17;;;;;;;24.85;23.14;101708.81;5114843;28;20276;-79
2021/10/04 07:30:18;;;;;;;34.03;17.85;;;;;;;25.07;22.58;101706.50;5114992;28;20036;-80
2021/10/04 07:32:44;;;;;;;32.78;17.88;;;;;;;25.18;22.12;101712.50;5098000;28;20091;-80
2021/10/04 07:35:10;;;;;;;34.40;17.63;;;;;;;24.87;22.32;101706.78;5120846;28;20035;-81
2021/10/04 07:37:36;;;;;;;36.03;19.55;;;;;;;23.19;24.27;101716.53;5103861;28;20099;-82
2021/10/04 07:40:04;;;;;;;36.90;20.42;;;;;;;23.78;24.13;101722.41;5123432;28;20626;-82
2021/10/04 07:42:31;;;;;;;44.63;20.25;;;;;;;25.10;22.53;101717.88;5088885;28;20035;-82
2021/10/04 07:44:57;;;;;;;36.00;19.20;;;;;;;26.43;21.83;101713.41;5105059;28;20047;-79
2021/10/04 07:47:23;;;;;;;39.40;19.90;;;;;;;27.50;20.73;101717.59;5118920;28;20332;-79
2021/10/04 07:49:50;;;;;;;35.30;20.63;;;;;;;27.34;19.93;101721.22;5115710;28;20043;-79
2021/10/04 07:52:16;;;;;;;37.75;20.27;;;;;;;25.66;21.60;101723.59;5119812;28;20047;-80
2021/10/04 07:54:42;;;;;;;39.40;19.75;;;;;;;25.96;21.76;101717.69;5124498;28;20081;-78
2021/10/04 07:57:12;;;;;;;35.63;18.60;;;;;;;27.36;20.42;101711.03;5123212;28;20048;-79
2021/10/04 07:59:41;;;;;;;36.97;19.70;;;;;;;26.07;21.53;101711.09;5113810;28;20146;-79
2021/10/04 08:02:09;;;;;;;44.58;21.13;;;;;;;26.71;20.82;101710.28;5095613;28;20039;-80
2021/10/04 08:04:35;;;;;;;42.83;21.13;;;;;;;27.32;20.18;101709.69;5113914;28;20036;-78
2021/10/04 08:07:01;;;;;;;44.53;20.77;;;;;;;26.82;20.43;101707.22;5080102;28;20084;-81
2021/10/04 08:09:27;;;;;;;46.55;21.08;;;;;;;26.59;21.07;101707.09;5079642;28;20437;-79
2021/10/04 08:11:54;;;;;;;33.85;17.77;;;;;;;26.07;21.26;101706.53;5114351;28;20051;-83
2021/10/04 08:14:21;;;;;;;31.10;16.85;;;;;;;25.90;21.50;101719.22;5080232;28;20051;-80
2021/10/04 08:16:48;;;;;;;30.57;15.30;;;;;;;25.91;21.05;101714.66;5096553;28;20043;-79
2021/10/04 08:19:14;;;;;;;29.23;17.52;;;;;;;25.05;21.96;101725.63;5061779;28;20043;-79
2021/10/04 08:21:40;;;;;;;31.75;16.95;;;;;;;22.81;24.26;101713.88;5114276;28;20058;-79
2021/10/04 08:24:06;;;;;;;32.58;17.65;;;;;;;24.31;23.62;101707.13;5077735;28;20397;-80
2021/10/04 08:26:33;;;;;;;28.83;16.90;;;;;;;23.91;23.71;101700.38;5078170;28;20044;-84
2021/10/04 08:28:59;;;;;;;32.72;19.13;;;;;;;23.16;24.36;101712.31;5077692;28;20393;-81
2021/10/04 08:31:32;;;;;;;30.35;17.42;;;;;;;22.98;24.98;101719.47;5112657;28;20050;-82
2021/10/04 08:34:05;;;;;;;30.13;16.65;;;;;;;22.72;24.99;101714.78;5079593;28;20044;-79
2021/10/04 08:36:33;;;;;;;30.25;17.63;;;;;;;22.78;24.76;101712.31;5111694;28;20043;-79
2021/10/04 08:38:59;;;;;;;28.73;15.07;;;;;;;22.13;25.48;101707.66;5094897;28;20058;-80
2021/10/04 08:41:26;;;;;;;36.95;17.33;;;;;;;21.88;26.09;101713.63;5094713;28;20416;-78
2021/10/04 08:43:54;;;;;;;28.52;15.95;;;;;;;21.84;25.65;101712.22;5111936;28;20031;-79
2021/10/04 08:46:21;;;;;;;32.53;15.93;;;;;;;22.29;25.67;101709.75;5094803;28;20043;-82
2021/10/04 08:48:48;;;;;;;30.42;16.42;;;;;;;22.65;25.06;101703.72;5113712;28;20046;-80
2021/10/04 08:51:14;;;;;;;25.65;13.38;;;;;;;22.58;24.76;101707.97;5078255;28;20048;-80
2021/10/04 08:53:41;;;;;;;26.95;13.50;;;;;;;23.49;24.52;101701.00;5112936;28;20046;-83
2021/10/04 08:56:08;;;;;;;23.40;13.15;;;;;;;24.17;23.50;101713.13;5078880;28;20545;-80
2021/10/04 08:58:38;;;;;;;22.20;13.02;;;;;;;23.87;23.30;101707.09;5077985;28;20047;-82
2021/10/04 09:01:04;;;;;;;25.75;13.60;;;;;;;22.05;25.30;101715.59;5094869;28;20388;-78
2021/10/04 09:03:44;;;;;;;26.05;14.52;;;;;;;21.60;26.32;101714.31;5094487;28;20123;-79
2021/10/04 09:06:40;;;;;;;31.13;14.18;;;;;;;21.62;26.38;101711.50;5112897;28;20043;-81
2021/10/04 09:09:09;;;;;;;26.27;14.32;;;;;;;20.75;27.16;101716.50;5112085;28;20085;-82
2021/10/04 09:11:54;;;;;;;26.65;13.07;;;;;;;21.25;26.52;101714.81;5077964;28;20109;-80
2021/10/04 09:14:27;;;;;;;27.73;13.95;;;;;;;20.84;27.40;101715.66;5110914;28;20399;-80
2021/10/04 09:17:00;;;;;;;23.02;12.07;;;;;;;20.36;27.73;101722.50;5093962;28;20417;-80
2021/10/04 09:19:32;;;;;;;24.63;12.65;;;;;;;19.20;28.79;101713.28;5112202;28;20416;-79
2021/10/04 09:22:19;;;;;;;27.83;13.20;;;;;;;18.74;30.24;101714.22;5113389;28;20079;-80
2021/10/04 09:24:57;;;;;;;32.97;13.63;;;;;;;18.86;30.22;101717.78;5110984;28;20043;-80
2021/10/04 09:27:39;;;;;;;21.83;11.52;;;;;;;18.51;30.20;101708.03;5094363;28;20426;-82
2021/10/04 09:30:16;;;;;;;24.00;12.60;;;;;;;19.15;29.44;101723.53;5094676;28;20047;-78
2021/10/04 09:32:42;;;;;;;27.15;12.55;;;;;;;20.12;27.81;101711.16;5111610;28;20058;-80
2021/10/04 09:35:23;;;;;;;19.30;10.65;;;;;;;20.57;27.60;101707.31;5095820;28;20134;-83
2021/10/04 09:37:57;;;;;;;22.58;10.95;;;;;;;21.60;25.80;101713.50;5082550;28;20043;-80
2021/10/04 09:40:28;;;;;;;19.70;10.55;;;;;;;21.94;25.87;101702.28;5119152;28;20055;-84
2021/10/04 09:42:54;;;;;;;21.95;11.10;;;;;;;21.74;25.66;101699.59;5086057;28;20536;-79
2021/10/04 09:45:20;;;;;;;22.65;11.68;;;;;;;22.33;24.87;101704.94;5101482;28;20077;-81
2021/10/04 09:47:49;;;;;;;20.90;11.30;;;;;;;21.25;25.88;101704.06;5065882;28;20514;-83
2021/10/04 09:50:16;;;;;;;22.92;10.43;;;;;;;;;;5116193;28;20065;-85
2021/10/04 09:52:57;;;;;;;27.50;12.80;;;;;;;22.36;25.39;101688.44;5081886;28;20482;-83
2021/10/04 09:55:36;;;;;;;23.10;11.95;;;;;;;22.00;25.09;101696.31;5099870;28;20484;-82
2021/10/04 09:58:13;;;;;;;22.23;11.57;;;;;;;20.67;26.97;101694.75;5115637;28;20520;-79
2021/10/04 10:00:47;;;;;;;22.33;11.97;;;;;;;21.05;26.30;101709.38;5082230;28;20507;-83
2021/10/04 10:03:22;;;;;;;27.75;13.40;;;;;;;19.64;28.21;101696.31;5094807;28;20446;-82
2021/10/04 10:05:53;;;;;;;23.58;12.73;;;;;;;19.42;28.47;101698.09;5065176;28;20039;-79
2021/10/04 10:08:24;;;;;;;20.73;11.43;;;;;;;19.52;28.00;101699.03;5097886;28;20502;-80
2021/10/04 10:10:52;;;;;;;27.60;12.65;;;;;;;18.10;29.99;101697.69;5114350;28;20051;-81
2021/10/04 10:13:21;;;;;;;26.92;11.85;;;;;;;16.85;31.73;101701.47;5114187;28;20047;-80
2021/10/04 10:16:09;;;;;;;23.70;11.60;;;;;;;17.21;31.65;101697.16;5098101;28;20130;-81
2021/10/04 10:18:41;;;;;;;29.10;12.85;;;;;;;16.74;32.91;101704.06;5114822;28;20523;-80
2021/10/04 10:21:08;;;;;;;27.63;12.10;;;;;;;15.86;34.23;101702.91;5097412;28;20051;-81
2021/10/04 10:23:51;;;;;;;29.65;12.25;;;;;;;15.08;35.12;101700.81;5113967;28;20118;-81
2021/10/04 10:26:36;;;;;;;25.50;11.93;;;;;;;14.53;36.24;101697.97;5097654;28;20403;-81
2021/10/04 10:29:19;;;;;;;33.97;15.25;;;;;;;14.20;36.43;101705.22;5097510;28;20122;-78
2021/10/04 10:31:51;;;;;;;37.15;15.52;;;;;;;13.94;37.59;101703.25;5097112;28;20040;-80
2021/10/04 10:34:23;;;;;;;35.83;13.25;;;;;;;13.84;38.33;101709.09;5096740;28;20182;-80
2021/10/04 10:37:17;;;;;;;28.40;12.30;;;;;;;14.43;37.41;101707.47;5114528;28;20047;-80
2021/10/04 10:39:57;;;;;;;31.98;14.30;;;;;;;15.47;36.06;101697.41;5114956;28;20047;-82
2021/10/04 10:42:38;;;;;;;27.65;13.32;;;;;;;15.74;35.34;101698.34;5113653;28;20043;-80
2021/10/04 10:45:09;;;;;;;28.80;11.63;;;;;;;15.73;35.19;101697.50;5096986;28;20048;-79
2021/10/04 10:47:35;;;;;;;50.92;22.85;;;;;;;15.49;35.21;101708.00;5114231;28;20048;-79
2021/10/04 10:50:07;;;;;;;29.27;13.13;;;;;;;14.87;36.37;101704.75;5113979;28;20036;-79
2021/10/04 10:52:37;;;;;;;23.90;12.43;;;;;;;14.58;36.67;101706.53;5080105;28;20062;-84
2021/10/04 10:55:22;;;;;;;24.50;12.02;;;;;;;14.21;37.45;101701.63;5114077;28;20047;-79
2021/10/04 10:57:51;;;;;;;31.60;14.05;;;;;;;13.85;38.93;101710.81;5114337;28;20044;-78
2021/10/04 11:00:49;;;;;;;31.80;13.27;;;;;;;13.41;39.90;101712.44;5115085;28;20157;-80
2021/10/04 11:03:23;;;;;;;30.00;13.45;;;;;;;13.45;40.32;101718.44;5035344;28;20045;-80
2021/10/04 11:06:03;;;;;;;26.73;13.02;;;;;;;13.37;40.42;101716.22;5052211;28;20139;-80
2021/10/04 11:08:29;;;;;;;28.88;12.90;;;;;;;13.11;41.12;101710.50;5051652;28;20148;-81
2021/10/04 11:10:58;;;;;;;30.23;12.45;;;;;;;12.89;41.47;101715.28;5052099;28;20124;-80
2021/10/04 11:13:35;;;;;;;27.20;12.77;;;;;;;12.77;42.11;101716.78;5034842;28;20474;-80
2021/10/04 11:16:09;;;;;;;29.43;11.63;;;;;;;12.60;42.50;101715.03;5052059;28;20067;-81